Latest Weather Observations for Tamworth Airport

IDN60801

Issued at 10:53 pm EDT Wednesday 1 February 2023 (issued every 10 minutes, with the page automatically refreshed every 10 minutes)

About weather observations | Map of weather stations | Latest weather observations for NSW | Other Formats
Station Details ID: 055325 Name: TAMWORTH AIRPORT AWS Lat: -31.07 Lon: 150.84 Height: 394.9 m
Data from the previous 72 hours. | See also: Recent months at Tamworth Airport
Date/Time
EDT
Temp
°C
App
Temp
°C
Dew
Point
°C
Rel
Hum
%
Delta-T
°C
Wind Press
QNH
hPa
Press
MSL
hPa
Rain since
9am
mm
Dir  Spd
km/h
Gust
km/h
Spd
kts
Gust
kts
01/10:30pm 22.2 23.1 16.0 68 3.8 NW 6 9 3 5 1002.6 1000.3 0.0
01/10:00pm 24.0 24.3 14.4 55 5.8 NW 6 7 3 4 1002.5 1000.2 0.0
01/09:30pm 24.0 25.1 14.7 56 5.6 WNW 2 7 1 4 1002.1 999.8 0.0
01/09:00pm 26.2 26.0 13.7 46 7.5 SSE 7 13 4 7 1001.7 999.4 0.0
01/08:30pm 26.2 27.5 14.0 47 7.4 CALM 0 0 0 0 1001.5 999.2 0.0
01/08:00pm 28.1 28.2 12.8 38 9.2 WNW 4 9 2 5 1001.2 998.9 0.0
01/07:30pm 30.5 30.1 12.9 34 10.6 NW 7 11 4 6 1000.9 998.6 0.0
01/07:00pm 31.9 32.5 13.2 32 11.4 W 2 7 1 4 1000.7 998.4 0.0
01/06:30pm 32.7 31.0 12.3 28 12.3 SW 13 17 7 9 1000.5 998.2 0.0
01/06:00pm 33.0 31.8 11.5 27 12.9 WNW 9 17 5 9 1000.6 998.3 0.0
01/05:30pm 33.3 32.2 10.0 24 13.6 W 6 15 3 8 1000.7 998.4 0.0
01/05:00pm 32.8 32.1 11.9 28 12.6 NNW 7 17 4 9 1000.8 998.5 0.0
01/04:30pm 33.0 33.6 13.1 30 12.2 NNW 2 11 1 6 1001.2 998.9 0.0
01/04:00pm 32.2 30.7 11.9 29 12.2 WSW 11 19 6 10 1001.5 999.2 0.0
01/03:30pm 32.6 30.9 11.2 27 12.7 SW 11 17 6 9 1001.7 999.4 0.0
01/03:00pm 32.0 30.5 14.2 34 11.1 N 15 26 8 14 1001.9 999.7 0.0
01/02:30pm 32.0 31.5 15.9 38 10.2 N 13 20 7 11 1002.3 1000.0 0.0
01/02:00pm 31.4 30.1 15.8 39 9.9 NNW 17 22 9 12 1002.9 1000.6 0.0
01/01:30pm 29.7 29.6 15.0 40 9.1 WNW 9 15 5 8 1003.1 1000.8 0.0
01/01:00pm 30.1 30.9 17.2 46 8.3 NW 9 15 5 8 1003.5 1001.2 0.0
01/12:30pm 29.7 30.3 15.8 43 8.7 WNW 7 15 4 8 1003.8 1001.5 0.0
01/12:00pm 28.4 29.6 16.0 47 7.8 NW 4 11 2 6 1004.1 1001.9 0.0
01/11:30am 28.6 28.8 15.8 45 8.0 ENE 9 17 5 9 1004.2 1002.0 0.0
01/11:00am 27.4 28.6 17.3 54 6.5 SSW 7 15 4 8 1004.4 1002.2 0.0
01/10:30am 26.7 29.1 18.8 62 5.1 ENE 4 9 2 5 1004.6 1002.2 0.0
01/10:00am 26.0 27.2 17.4 59 5.5 ESE 7 13 4 7 1004.9 1002.4 0.0
01/09:30am 25.3 26.7 18.7 67 4.3 SE 9 15 5 8 1004.9 1002.4 0.0
01/09:00am 23.3 24.0 18.8 76 2.9 SE 13 17 7 9 1004.9 1002.4 0.8
01/08:30am 22.5 23.8 19.3 82 2.1 SE 11 13 6 7 1004.8 1002.3 0.8
01/08:00am 22.4 24.0 19.9 86 1.6 SSE 11 15 6 8 1004.4 1002.0 0.8
01/07:30am 20.3 22.3 19.1 93 0.8 SSW 7 9 4 5 1004.3 1001.9 0.8
01/07:00am 19.6 21.3 18.4 93 0.8 S 7 9 4 5 1004.0 1001.6 0.8
01/06:30am 18.9 20.0 17.9 94 0.6 SSE 9 11 5 6 1003.7 1001.3 0.8
01/06:00am 19.0 20.4 17.8 93 0.8 SE 7 9 4 5 1003.2 1000.8 0.8
01/05:30am 19.0 20.1 18.0 94 0.6 SE 9 11 5 6 1003.1 1000.7 0.8
01/05:00am 18.9 19.9 17.7 93 0.8 ESE 9 11 5 6 1002.9 1000.5 0.8
01/04:30am 19.4 21.0 18.2 93 0.8 ESE 7 9 4 5 1002.9 1000.5 0.8
01/04:00am 18.9 20.3 17.9 94 0.6 ESE 7 13 4 7 1002.7 1000.2 0.8
01/03:30am 18.6 20.6 17.8 95 0.5 SE 4 7 2 4 1002.8 1000.4 0.8
01/03:00am 18.7 21.3 17.4 92 0.8 CALM 0 2 0 1 1003.0 1000.6 0.8
01/02:30am 18.8 20.1 17.5 92 0.8 SE 7 9 4 5 1003.0 1000.6 0.8
01/02:00am 19.3 20.2 17.6 90 1.1 S 9 11 5 6 1003.2 1000.8 0.8
01/01:30am 19.5 22.1 17.5 88 1.2 CALM 0 0 0 0 1003.5 1001.1 0.8
01/01:00am 20.3 22.0 18.1 87 1.4 ENE 6 9 3 5 1003.5 1001.1 0.8
01/12:30am 21.0 22.6 17.8 82 2.0 ESE 6 9 3 5 1003.6 1001.2 0.8
01/12:00am 21.0 22.1 18.0 83 1.9 S 9 13 5 7 1003.7 1001.3 0.8
 
Date/Time
EDT
Temp
°C
App
Temp
°C
Dew
Point
°C
Rel
Hum
%
Delta-T
°C
Wind Press
QNH
hPa
Press
MSL
hPa
Rain since
9am
mm
Dir  Spd
km/h
Gust
km/h
Spd
kts
Gust
kts
31/11:30pm 21.1 23.1 19.2 89 1.2 S 7 9 4 5 1003.7 1001.3 0.8
31/11:00pm 21.0 24.6 19.7 92 0.8 CALM 0 0 0 0 1003.9 1001.5 0.8
31/10:30pm 22.2 24.7 19.9 87 1.5 ENE 6 7 3 4 1004.0 1001.6 0.8
31/10:00pm 22.3 24.7 20.0 87 1.5 ENE 7 9 4 5 1004.0 1001.6 0.8
31/09:30pm 23.1 25.2 20.2 84 1.9 NNE 9 17 5 9 1003.8 1001.4 0.8
31/09:00pm 23.7 26.0 19.8 79 2.6 NNE 7 13 4 7 1003.2 1000.8 0.8
31/08:30pm 24.2 26.1 19.7 76 2.9 WNW 9 20 5 11 1003.0 1000.6 0.8
31/08:00pm 25.3 26.2 17.5 62 5.0 SW 9 11 5 6 1002.7 1000.2 0.8
31/07:30pm 27.4 28.2 17.3 54 6.4 S 9 13 5 7 1002.3 999.8 0.8
31/07:00pm 28.3 28.3 17.2 51 7.1 S 13 17 7 9 1001.8 999.4 0.8
31/06:30pm 29.8 28.4 16.6 45 8.4 S 19 26 10 14 1001.5 999.1 0.8
31/06:00pm 30.4 29.4 17.5 46 8.4 S 19 24 10 13 1000.8 998.4 0.8
31/05:30pm 29.4 30.0 16.9 47 8.0 SSE 9 13 5 7 1001.0 998.6 0.8
31/05:00pm 30.4 30.5 17.5 46 8.4 SE 13 28 7 15 1001.1 998.7 0.8
31/04:30pm 29.8 31.0 18.3 50 7.5 SE 9 19 5 10 1001.7 999.3 0.8
31/04:00pm 30.4 31.4 17.8 46 8.2 ESE 9 15 5 8 1001.9 999.5 0.8
31/03:30pm 30.4 30.8 18.2 48 8.0 WSW 13 20 7 11 1002.2 999.7 0.8
31/03:00pm 29.8 30.7 18.3 50 7.5 WSW 11 24 6 13 1002.8 1000.4 0.8
31/02:30pm 29.4 30.9 18.8 53 6.9 WNW 9 19 5 10 1003.0 1000.6 0.8
31/02:00pm 29.0 30.7 18.4 52 6.9 WSW 7 15 4 8 1003.4 1001.0 0.8
31/01:30pm 28.4 30.0 19.9 60 5.6 WNW 11 19 6 10 1003.8 1001.4 0.8
31/01:00pm 26.8 28.5 20.9 70 4.0 WNW 13 19 7 10 1004.4 1002.0 0.8
31/12:30pm 26.1 28.3 21.1 74 3.4 NW 11 15 6 8 1004.9 1002.4 0.8
31/12:00pm 24.4 26.8 21.5 84 2.0 WNW 11 15 6 8 1005.3 1002.9 0.8
31/11:30am 25.2 27.4 21.1 78 2.7 NW 11 15 6 8 1005.6 1003.2 0.2
31/11:00am 24.5 26.3 20.4 78 2.7 WNW 11 15 6 8 1006.0 1003.6 0.2
31/10:30am 23.4 25.8 20.9 86 1.7 WNW 9 13 5 7 1006.2 1003.8 0.2
31/10:10am 23.2 26.2 21.3 89 1.3 WNW 7 11 4 6 1006.2 1003.8 0.2
31/10:00am 22.9 25.3 20.8 88 1.4 WSW 9 11 5 6 1006.2 1003.8 0.2
31/09:37am 22.3 25.2 20.6 90 1.1 W 6 11 3 6 1006.2 1003.8 0.2
31/09:30am 22.4 24.9 21.0 92 0.9 WNW 9 13 5 7 1006.1 1003.7 0.2
31/09:19am 22.3 25.2 21.8 97 0.3 WNW 9 13 5 7 1006.3 1003.9 0.0
31/09:11am 21.7 23.9 21.2 97 0.3 WNW 11 15 6 8 1006.3 1003.9 0.0
31/09:00am 21.5 23.7 21.2 98 0.2 NW 11 15 6 8 1006.4 1004.0 34.8
31/08:30am 21.0 22.6 20.7 98 0.2 NNW 13 19 7 10 1006.4 1004.0 34.4
31/08:27am 21.1 22.4 20.8 98 0.2 N 15 20 8 11 1006.4 1004.0 34.4
31/08:00am 20.9 22.1 20.6 98 0.2 N 15 19 8 10 1006.3 1003.9 34.4
31/07:48am 20.7 22.1 20.4 98 0.2 N 13 15 7 8 1006.3 1003.9 34.4
31/07:30am 20.6 22.4 20.3 98 0.2 N 11 17 6 9 1006.0 1003.6 34.0
31/07:08am 20.5 22.2 20.2 98 0.2 NNW 11 15 6 8 1005.9 1003.5 33.8
31/07:00am 20.6 22.0 20.3 98 0.2 N 13 17 7 9 1005.9 1003.5 33.6
31/06:30am 20.5 22.6 20.2 98 0.2 NNW 9 15 5 8 1005.7 1003.3 33.6
31/06:00am 20.6 22.4 20.3 98 0.2 NNW 11 13 6 7 1005.5 1003.1 33.6
31/05:45am 20.5 21.8 20.2 98 0.2 NNW 13 15 7 8 1005.5 1003.1 33.6
31/05:30am 20.5 21.8 20.2 98 0.2 NW 13 17 7 9 1005.5 1003.1 33.6
31/05:10am 20.6 22.4 20.3 98 0.2 NW 11 13 6 7 1005.5 1003.1 33.2
31/05:02am 20.5 22.2 20.2 98 0.2 NW 11 15 6 8 1005.5 1003.1 33.2
31/05:00am 20.5 22.2 20.2 98 0.2 NW 11 15 6 8 1005.4 1003.0 33.2
31/04:30am 20.5 22.6 20.2 98 0.2 NNW 9 13 5 7 1005.5 1003.1 33.2
31/04:00am 20.5 22.2 20.2 98 0.2 N 11 15 6 8 1005.7 1003.3 31.6
31/03:41am 20.6 21.9 20.1 97 0.3 N 13 17 7 9 1005.9 1003.5 29.6
31/03:37am 20.7 22.4 20.2 97 0.3 N 11 15 6 8 1006.0 1003.6 27.6
31/03:30am 20.7 22.8 20.2 97 0.3 NNW 9 13 5 7 1006.0 1003.6 27.4
31/03:00am 20.7 22.0 20.2 97 0.3 N 13 17 7 9 1006.3 1003.9 27.4
31/02:30am 20.8 22.9 20.1 96 0.5 NNW 9 11 5 6 1006.6 1004.2 27.4
31/02:00am 20.8 24.2 20.1 96 0.5 NE 2 7 1 4 1006.9 1004.5 27.2
31/01:30am 20.8 24.7 20.3 97 0.3 CALM 0 0 0 0 1007.5 1005.1 27.2
31/01:00am 20.9 24.8 20.4 97 0.3 CALM 0 0 0 0 1007.7 1005.3 27.2
31/12:30am 20.9 24.8 20.4 97 0.3 CALM 0 0 0 0 1008.2 1005.8 26.8
31/12:00am 21.0 23.5 20.3 96 0.5 N 7 9 4 5 1008.4 1006.0 26.8
 
Date/Time
EDT
Temp
°C
App
Temp
°C
Dew
Point
°C
Rel
Hum
%
Delta-T
°C
Wind Press
QNH
hPa
Press
MSL
hPa
Rain since
9am
mm
Dir  Spd
km/h
Gust
km/h
Spd
kts
Gust
kts
30/11:34pm 21.0 22.4 20.3 96 0.5 N 13 15 7 8 1008.8 1006.4 26.8
30/11:30pm 21.0 22.3 20.2 95 0.5 N 13 15 7 8 1008.8 1006.4 26.8
30/11:21pm 21.0 22.7 20.2 95 0.5 NNE 11 17 6 9 1008.8 1006.4 26.8
30/11:00pm 21.0 24.2 20.5 97 0.3 N 4 6 2 3 1009.2 1006.8 26.8
30/10:30pm 21.1 23.3 20.4 96 0.5 NNE 9 11 5 6 1009.3 1006.9 26.6
30/10:00pm 21.1 23.3 20.3 95 0.5 N 9 11 5 6 1009.4 1007.0 26.6
30/09:30pm 20.8 23.3 20.3 97 0.3 WNW 7 9 4 5 1009.3 1006.9 26.6
30/09:00pm 20.7 23.2 20.2 97 0.3 SW 7 9 4 5 1009.3 1006.9 26.6
30/08:30pm 20.7 24.4 20.0 96 0.5 CALM 0 0 0 0 1008.8 1006.4 26.6
30/08:00pm 20.8 23.3 20.3 97 0.3 NNW 7 9 4 5 1008.9 1006.5 26.6
30/07:30pm 20.9 22.6 20.2 96 0.5 N 11 15 6 8 1009.2 1006.8 26.0
30/07:00pm 20.9 22.2 20.2 96 0.5 N 13 17 7 9 1009.2 1006.8 24.8
30/06:30pm 20.9 22.3 20.4 97 0.3 N 13 17 7 9 1009.2 1006.8 24.2
30/06:15pm 20.8 22.2 20.3 97 0.3 N 13 17 7 9 1009.2 1006.8 24.0
30/06:00pm 20.6 21.1 20.1 97 0.3 N 17 24 9 13 1009.4 1007.0 23.6
30/05:50pm 20.6 20.7 19.9 96 0.5 N 19 24 10 13 1009.3 1006.9 23.2
30/05:48pm 20.6 20.7 19.9 96 0.5 N 19 24 10 13 1009.4 1007.0 23.2
30/05:30pm 20.8 21.0 20.1 96 0.5 N 19 26 10 14 1009.5 1007.1 23.0
30/05:15pm 21.2 21.9 20.5 96 0.5 N 17 20 9 11 1009.4 1007.0 22.8
30/05:00pm 21.9 24.2 21.4 97 0.3 N 11 13 6 7 1009.3 1006.9 22.8
30/04:39pm 21.7 23.5 21.2 97 0.3 NNW 13 19 7 10 1009.4 1007.0 22.4
30/04:30pm 21.6 22.9 20.9 96 0.5 NNW 15 20 8 11 1009.4 1007.0 21.8
30/04:00pm 22.1 25.0 21.1 94 0.7 E 7 11 4 6 1009.4 1007.0 19.0
30/03:43pm 22.7 26.6 21.9 95 0.5 ENE 4 11 2 6 1009.6 1007.3 13.6
30/03:30pm 22.8 25.4 22.0 95 0.5 SE 11 15 6 8 1009.2 1006.8 12.0
30/03:14pm 22.7 24.9 21.9 95 0.5 SE 13 17 7 9 1009.3 1006.9 11.8
30/03:00pm 22.7 25.7 21.9 95 0.5 SSE 9 15 5 8 1009.4 1007.0 11.6
30/02:52pm 23.0 27.3 22.0 94 0.7 SSE 2 9 1 5 1010.1 1007.7 10.8
30/02:30pm 23.0 25.7 22.2 95 0.5 ENE 11 15 6 8 1010.1 1007.7 8.8
30/02:00pm 23.1 26.7 22.1 94 0.7 ENE 6 11 3 6 1010.4 1008.0 8.2
30/01:37pm 22.5 25.8 21.8 96 0.5 NNE 7 11 4 6 1010.5 1008.1 8.2
30/01:30pm 22.0 24.7 21.3 96 0.5 N 9 15 5 8 1010.8 1008.4 8.2
30/01:29pm 22.0 24.3 21.3 96 0.5 N 11 15 6 8 1010.8 1008.4 8.2
30/01:18pm 21.8 21.7 20.8 94 0.7 NW 22 32 12 17 1010.8 1008.4 7.6
30/01:09pm 23.6 23.6 20.1 81 2.3 NW 20 32 11 17 1011.2 1008.8 1.6
30/01:00pm 26.5 26.1 18.9 63 5.0 NNW 19 24 10 13 1010.5 1008.1 0.2
30/12:30pm 29.1 27.8 18.2 51 7.1 N 22 32 12 17 1010.3 1007.9 0.2
30/12:00pm 28.5 27.3 18.3 54 6.6 N 22 32 12 17 1010.7 1008.3 0.2
30/11:30am 29.6 29.2 19.3 54 6.8 N 20 28 11 15 1010.8 1008.4 0.2
30/11:00am 27.7 26.6 17.8 54 6.4 N 20 28 11 15 1011.2 1008.8 0.2
30/10:30am 27.9 28.6 18.9 58 5.9 NNE 13 22 7 12 1011.6 1009.2 0.0
30/10:00am 25.9 28.1 19.5 68 4.2 E 7 11 4 6 1011.7 1009.3 0.0
30/09:30am 24.1 26.6 20.2 79 2.6 ESE 7 11 4 6 1012.2 1009.9 0.0
30/09:00am 23.7 26.0 19.8 79 2.6 SE 7 9 4 5 1012.5 1010.2 1.6
30/08:30am 23.3 24.8 19.7 80 2.3 SE 11 15 6 8 1012.4 1010.1 1.6
30/08:00am 22.5 24.4 19.7 84 1.8 SSE 9 13 5 7 1012.4 1010.1 1.6
30/07:30am 22.6 24.5 19.0 80 2.3 S 7 9 4 5 1012.3 1010.0 1.6
30/07:00am 22.5 22.8 18.7 79 2.4 ESE 15 19 8 10 1011.7 1009.3 1.6
30/06:30am 22.1 21.5 18.5 80 2.3 ESE 19 22 10 12 1011.6 1009.2 1.6
30/06:00am 21.6 21.5 18.8 84 1.8 ESE 17 24 9 13 1011.4 1009.0 1.6
30/05:30am 20.4 20.0 18.0 86 1.5 SE 17 20 9 11 1011.4 1009.0 1.6
30/05:00am 20.5 19.6 18.1 86 1.5 SE 20 22 11 12 1011.4 1009.0 1.6
30/04:30am 20.4 19.6 18.0 86 1.5 ESE 19 22 10 12 1011.6 1009.2 1.6
30/04:00am 20.0 19.1 17.8 87 1.4 SE 19 26 10 14 1011.7 1009.3 1.6
30/03:30am 20.7 19.9 17.9 84 1.8 S 19 24 10 13 1012.6 1010.3 0.4
30/03:00am 20.9 20.4 17.7 82 2.0 S 17 24 9 13 1012.2 1009.9 0.4
30/02:30am 20.6 20.8 17.6 83 1.9 SSE 13 15 7 8 1012.2 1009.9 0.4
30/02:00am 20.6 19.6 18.0 85 1.6 ESE 20 26 11 14 1012.5 1010.2 0.4
30/01:30am 20.4 20.1 18.2 87 1.4 SE 17 22 9 12 1013.6 1011.2 0.4
30/01:00am 20.2 19.3 18.1 88 1.3 SSE 20 26 11 14 1013.8 1011.4 0.4
30/12:30am 20.2 19.2 17.6 85 1.6 S 19 24 10 13 1014.6 1012.3 0.4
30/12:00am 21.3 20.1 17.1 77 2.6 SSW 19 24 10 13 1014.3 1012.0 0.0
 
Date/Time
EDT
Temp
°C
App
Temp
°C
Dew
Point
°C
Rel
Hum
%
Delta-T
°C
Wind Press
QNH
hPa
Press
MSL
hPa
Rain since
9am
mm
Dir  Spd
km/h
Gust
km/h
Spd
kts
Gust
kts
29/11:30pm 21.2 21.0 16.8 76 2.7 SSE 13 19 7 10 1014.1 1011.8 0.0
29/11:00pm 20.8 19.1 17.2 80 2.2 SSE 22 30 12 16 1014.2 1011.9 0.0

Other formats

Comma delimited format used in spreadsheet applications
http://www.bom.gov.au/fwo/IDN60801/IDN60801.95762.axf

JavaScript Object Notation format (JSON) in row-major order
http://www.bom.gov.au/fwo/IDN60801/IDN60801.95762.json

Data quality

Most of these data are generated automatically and are frequently updated. Quality checks on data are not normally performed. It is possible for incorrect values to appear. Refer to information at About Latest Weather Observations and please check the disclaimer before using these data.